createdAt,value
2023-05-22T00:01:34.096Z,11.05
2023-05-22T00:04:02.926Z,10.77
2023-05-22T00:06:30.312Z,11.20
2023-05-22T00:08:57.699Z,11.50
2023-05-22T00:11:24.984Z,11.40
2023-05-22T00:13:52.426Z,10.52
2023-05-22T00:16:19.815Z,10.82
2023-05-22T00:18:47.546Z,11.10
2023-05-22T00:21:15.011Z,11.13
2023-05-22T00:23:42.880Z,11.70
2023-05-22T00:26:10.205Z,10.05
2023-05-22T00:28:37.552Z,10.60
2023-05-22T00:31:04.995Z,11.55
2023-05-22T00:33:34.137Z,11.52
2023-05-22T00:36:01.663Z,12.03
2023-05-22T00:38:30.692Z,11.00
2023-05-22T00:40:58.043Z,11.60
2023-05-22T00:43:27.110Z,11.05
2023-05-22T00:45:54.642Z,11.43
2023-05-22T00:48:22.482Z,12.43
2023-05-22T00:50:50.493Z,12.07
2023-05-22T00:53:17.937Z,12.77
2023-05-22T00:55:45.567Z,13.57
2023-05-22T00:58:16.041Z,11.63
2023-05-22T01:00:43.704Z,12.23
2023-05-22T01:03:11.513Z,12.77
2023-05-22T01:05:39.541Z,13.18
2023-05-22T01:08:07.686Z,13.43
2023-05-22T01:10:35.829Z,12.52
2023-05-22T01:13:21.897Z,14.03
2023-05-22T01:15:53.250Z,12.75
2023-05-22T01:18:29.469Z,13.52
2023-05-22T01:21:18.349Z,13.57
2023-05-22T01:24:11.658Z,13.50
2023-05-22T01:26:59.237Z,13.20
2023-05-22T01:29:46.138Z,14.38
2023-05-22T01:32:15.346Z,14.55
2023-05-22T01:34:45.102Z,13.38
2023-05-22T01:37:13.375Z,13.07
2023-05-22T01:39:41.307Z,14.53
2023-05-22T01:42:09.441Z,13.00
2023-05-22T01:44:36.764Z,13.15
2023-05-22T01:47:05.796Z,13.82
2023-05-22T01:49:33.987Z,13.75
2023-05-22T01:52:15.861Z,13.80
2023-05-22T01:54:46.826Z,14.35
2023-05-22T01:57:19.321Z,13.85
2023-05-22T01:59:54.509Z,12.80
2023-05-22T02:02:22.618Z,13.02
2023-05-22T02:04:53.026Z,13.90
2023-05-22T02:07:22.056Z,14.10
2023-05-22T02:09:50.713Z,13.73
2023-05-22T02:12:18.170Z,14.13
2023-05-22T02:14:45.760Z,14.35
2023-05-22T02:17:13.101Z,14.40
2023-05-22T02:19:40.516Z,14.60
2023-05-22T02:22:09.931Z,14.38
2023-05-22T02:24:37.850Z,16.05
2023-05-22T02:27:05.408Z,13.20
2023-05-22T02:29:32.842Z,13.40
2023-05-22T02:32:00.697Z,13.98
2023-05-22T02:34:28.492Z,13.40
2023-05-22T02:36:56.340Z,14.20
2023-05-22T02:39:23.739Z,12.68
2023-05-22T02:41:50.986Z,12.73
2023-05-22T02:44:18.367Z,15.07
2023-05-22T02:46:45.853Z,15.00
2023-05-22T02:49:13.159Z,15.95
2023-05-22T02:51:40.702Z,13.85
2023-05-22T02:54:07.997Z,15.50
2023-05-22T02:56:36.391Z,15.93
2023-05-22T02:59:03.672Z,15.05
2023-05-22T03:01:31.007Z,14.93
2023-05-22T03:03:58.438Z,14.95
2023-05-22T03:06:25.811Z,15.83
2023-05-22T03:08:54.023Z,15.52
2023-05-22T03:11:21.615Z,13.23
2023-05-22T03:13:48.968Z,13.95
2023-05-22T03:16:16.345Z,13.85
2023-05-22T03:18:46.430Z,15.63
2023-05-22T03:21:13.801Z,13.90
2023-05-22T03:23:41.223Z,14.30
2023-05-22T03:26:08.540Z,14.63
2023-05-22T03:28:38.043Z,14.38
2023-05-22T03:31:05.861Z,14.60
2023-05-22T03:33:42.184Z,13.43
2023-05-22T03:36:09.654Z,15.55
2023-05-22T03:38:37.284Z,15.07
2023-05-22T03:41:04.687Z,13.88
2023-05-22T03:43:32.009Z,14.57
2023-05-22T03:45:59.412Z,14.80
2023-05-22T03:48:27.490Z,17.08
2023-05-22T03:50:54.812Z,16.35
2023-05-22T03:53:22.138Z,17.38
2023-05-22T03:55:49.400Z,15.97
2023-05-22T03:58:16.811Z,15.82
2023-05-22T04:00:46.271Z,16.50
2023-05-22T04:03:13.718Z,15.82
2023-05-22T04:05:41.222Z,15.52
2023-05-22T04:08:08.553Z,16.73
2023-05-22T04:10:39.104Z,14.93
2023-05-22T04:13:06.716Z,14.77
2023-05-22T04:15:34.155Z,16.95
2023-05-22T04:18:01.585Z,15.25
2023-05-22T04:20:28.990Z,15.10
2023-05-22T04:22:57.661Z,16.13
2023-05-22T04:25:24.997Z,16.45
2023-05-22T04:27:53.252Z,16.83
2023-05-22T04:30:22.101Z,15.75
2023-05-22T04:32:49.949Z,15.47
2023-05-22T04:35:18.595Z,15.07
2023-05-22T04:37:46.147Z,14.45
2023-05-22T04:40:15.195Z,14.35
2023-05-22T04:42:42.619Z,16.00
2023-05-22T04:45:10.097Z,14.80
2023-05-22T04:47:38.390Z,14.63
2023-05-22T04:50:08.009Z,14.32
2023-05-22T04:52:36.204Z,15.40
2023-05-22T04:55:05.338Z,14.68
2023-05-22T04:57:33.531Z,14.83
2023-05-22T05:00:01.265Z,14.80
2023-05-22T05:02:29.187Z,14.32
2023-05-22T05:04:56.629Z,15.20
2023-05-22T05:07:25.148Z,15.95
2023-05-22T05:09:53.068Z,15.40
2023-05-22T05:12:20.397Z,15.13
2023-05-22T05:14:47.691Z,15.00
2023-05-22T05:17:15.946Z,14.57
2023-05-22T05:19:43.372Z,13.43
2023-05-22T05:22:10.811Z,15.60
2023-05-22T05:24:38.363Z,15.35
2023-05-22T05:27:06.076Z,16.42
2023-05-22T05:29:33.544Z,14.02
2023-05-22T05:32:06.222Z,14.82
2023-05-22T05:35:06.117Z,14.43
2023-05-22T05:37:56.514Z,15.20
2023-05-22T05:40:25.092Z,14.15
2023-05-22T05:42:52.701Z,15.52
2023-05-22T05:45:24.466Z,14.60
2023-05-22T05:47:53.080Z,14.97
2023-05-22T05:50:21.016Z,14.65
2023-05-22T05:52:48.912Z,14.85
2023-05-22T05:55:18.603Z,15.48
2023-05-22T05:57:46.797Z,14.18
2023-05-22T06:00:20.711Z,15.30
2023-05-22T06:02:50.653Z,15.23
2023-05-22T06:05:34.528Z,16.08
2023-05-22T06:08:13.697Z,16.25
2023-05-22T06:10:42.081Z,15.88
2023-05-22T06:13:15.528Z,15.20
2023-05-22T06:15:42.922Z,15.68
2023-05-22T06:18:11.146Z,14.23
2023-05-22T06:20:39.779Z,16.42
2023-05-22T06:23:07.801Z,16.45
2023-05-22T06:25:35.181Z,17.50
2023-05-22T06:28:03.084Z,16.20
2023-05-22T06:30:43.267Z,16.27
2023-05-22T06:33:15.057Z,15.43
2023-05-22T06:35:43.224Z,16.23
2023-05-22T06:38:10.685Z,17.03
2023-05-22T06:40:39.559Z,15.50
2023-05-22T06:43:14.918Z,16.73
2023-05-22T06:45:55.752Z,14.60
2023-05-22T06:48:23.268Z,15.90
2023-05-22T06:51:12.752Z,16.13
2023-05-22T06:53:41.552Z,16.08
2023-05-22T06:56:17.505Z,15.27
2023-05-22T06:58:53.525Z,15.80
2023-05-22T07:01:23.445Z,15.48
2023-05-22T07:04:02.402Z,16.00
2023-05-22T07:06:51.794Z,15.93
2023-05-22T07:09:20.716Z,14.63
2023-05-22T07:11:49.363Z,16.10
2023-05-22T07:14:18.165Z,15.85
2023-05-22T07:16:46.429Z,16.00
2023-05-22T07:19:19.359Z,16.60
2023-05-22T07:21:46.898Z,15.32
2023-05-22T07:24:18.016Z,15.60
2023-05-22T07:26:48.517Z,15.80
2023-05-22T07:29:17.452Z,15.37
2023-05-22T07:31:48.107Z,15.43
2023-05-22T07:34:15.518Z,15.07
2023-05-22T07:36:44.312Z,15.10
2023-05-22T07:39:11.735Z,16.55
2023-05-22T07:41:41.134Z,15.73
2023-05-22T07:44:11.843Z,15.52
2023-05-22T07:46:39.284Z,14.55
2023-05-22T07:49:22.086Z,14.43
2023-05-22T07:51:50.489Z,14.38
2023-05-22T07:54:19.559Z,15.73
2023-05-22T07:56:50.685Z,15.25
2023-05-22T07:59:21.525Z,15.57
2023-05-22T08:01:48.911Z,16.02
2023-05-22T08:04:16.437Z,15.48
2023-05-22T08:06:44.360Z,15.20
2023-05-22T08:09:11.891Z,15.13
2023-05-22T08:11:42.147Z,15.82
2023-05-22T08:14:09.666Z,15.90
2023-05-22T08:16:37.270Z,15.15
2023-05-22T08:19:04.726Z,15.13
2023-05-22T08:21:34.405Z,14.93
2023-05-22T08:24:02.133Z,14.50
2023-05-22T08:26:31.470Z,14.65
2023-05-22T08:28:59.557Z,16.25
2023-05-22T08:31:29.275Z,14.30
2023-05-22T08:34:02.601Z,14.32
2023-05-22T08:36:33.887Z,13.82
2023-05-22T08:39:01.577Z,15.68
2023-05-22T08:41:29.255Z,16.58
2023-05-22T08:43:56.637Z,15.83
2023-05-22T08:46:28.345Z,15.70
2023-05-22T08:48:59.245Z,14.88
2023-05-22T08:51:29.304Z,13.25
2023-05-22T08:53:57.429Z,12.50
2023-05-22T08:56:26.772Z,13.97
2023-05-22T08:58:56.155Z,13.80
2023-05-22T09:01:23.947Z,13.23
2023-05-22T09:03:51.966Z,13.32
2023-05-22T09:06:19.363Z,14.15
2023-05-22T09:08:46.723Z,14.97
2023-05-22T09:11:14.188Z,14.35
2023-05-22T09:13:41.620Z,13.32
2023-05-22T09:16:13.141Z,14.35
2023-05-22T09:18:42.117Z,13.45
2023-05-22T09:21:18.129Z,14.97
2023-05-22T09:24:00.242Z,13.35
2023-05-22T09:26:29.362Z,12.98
2023-05-22T09:28:57.286Z,14.25
2023-05-22T09:31:24.727Z,14.35
2023-05-22T09:33:52.198Z,14.80
2023-05-22T09:36:19.547Z,15.00
2023-05-22T09:38:46.846Z,14.27
2023-05-22T09:41:14.103Z,14.15
2023-05-22T09:43:50.872Z,14.27
2023-05-22T09:46:18.320Z,14.03
2023-05-22T09:48:51.753Z,14.35
2023-05-22T09:51:23.825Z,13.43
2023-05-22T09:53:52.447Z,13.05
2023-05-22T09:56:31.251Z,13.32
2023-05-22T09:59:09.642Z,12.90
2023-05-22T10:01:39.895Z,14.27
2023-05-22T10:04:11.231Z,12.63
2023-05-22T10:06:39.270Z,14.65
2023-05-22T10:09:09.135Z,12.60
2023-05-22T10:11:36.803Z,13.73
2023-05-22T10:14:05.198Z,13.55
2023-05-22T10:16:34.216Z,14.27
2023-05-22T10:19:01.845Z,14.93
2023-05-22T10:21:32.080Z,13.45
2023-05-22T10:24:02.869Z,13.80
2023-05-22T10:26:30.753Z,14.75
2023-05-22T10:29:08.489Z,14.18
2023-05-22T10:31:46.303Z,13.43
2023-05-22T10:34:39.749Z,13.43
2023-05-22T10:37:17.551Z,15.40
2023-05-22T10:39:55.636Z,13.32
2023-05-22T10:42:23.013Z,13.80
2023-05-22T10:44:50.490Z,14.10
2023-05-22T10:47:17.829Z,12.35
2023-05-22T10:49:45.523Z,10.20
2023-05-22T10:52:16.173Z,11.82
2023-05-22T10:54:44.311Z,12.20
2023-05-22T10:57:14.486Z,12.65
2023-05-22T10:59:41.778Z,12.30
2023-05-22T11:02:20.714Z,11.60
2023-05-22T11:04:48.403Z,12.15
2023-05-22T11:07:16.001Z,11.38
2023-05-22T11:09:45.824Z,10.63
2023-05-22T11:12:17.571Z,10.02
2023-05-22T11:15:03.266Z,10.77
2023-05-22T11:17:31.197Z,10.43
2023-05-22T11:20:06.036Z,11.30
2023-05-22T11:22:34.863Z,11.02
2023-05-22T11:25:04.339Z,12.13
2023-05-22T11:27:32.263Z,10.13
2023-05-22T11:30:01.771Z,10.38
2023-05-22T11:32:29.375Z,10.43
2023-05-22T11:34:57.559Z,10.70
2023-05-22T11:37:25.142Z,12.68
2023-05-22T11:39:56.637Z,14.17
2023-05-22T11:42:24.125Z,13.10
2023-05-22T11:44:51.809Z,13.25
2023-05-22T11:47:19.197Z,13.07
2023-05-22T11:49:46.823Z,13.93
2023-05-22T11:52:14.285Z,12.23
2023-05-22T11:54:41.604Z,14.32
2023-05-22T11:57:09.466Z,13.18
2023-05-22T11:59:37.058Z,13.70
2023-05-22T12:02:04.419Z,12.50
2023-05-22T12:04:33.312Z,12.50
2023-05-22T12:07:00.690Z,10.43
2023-05-22T12:09:28.660Z,11.68
2023-05-22T12:11:59.816Z,11.80
2023-05-22T12:14:31.528Z,13.00
2023-05-22T12:16:59.629Z,12.87
2023-05-22T12:19:27.800Z,11.48
2023-05-22T12:21:55.229Z,12.95
2023-05-22T12:24:25.669Z,11.60
2023-05-22T12:26:53.871Z,10.30
2023-05-22T12:29:24.302Z,10.47
2023-05-22T12:31:52.347Z,10.73
2023-05-22T12:34:19.803Z,11.00
2023-05-22T12:36:47.813Z,10.68
2023-05-22T12:39:19.344Z,10.57
2023-05-22T12:41:46.813Z,11.20
2023-05-22T12:44:16.364Z,11.40
2023-05-22T12:46:44.015Z,11.65
2023-05-22T12:49:11.594Z,10.75
2023-05-22T12:51:39.073Z,11.43
2023-05-22T12:54:06.425Z,11.60
2023-05-22T12:56:33.995Z,10.85
2023-05-22T12:59:01.346Z,11.98
2023-05-22T13:01:28.861Z,14.18
2023-05-22T13:03:56.334Z,11.45
2023-05-22T13:06:23.671Z,11.83
2023-05-22T13:08:51.647Z,13.05
2023-05-22T13:11:20.153Z,12.50
2023-05-22T13:13:47.476Z,12.52
2023-05-22T13:16:14.913Z,12.65
2023-05-22T13:18:42.298Z,12.93
2023-05-22T13:21:09.647Z,13.10
2023-05-22T13:23:37.078Z,12.25
2023-05-22T13:26:04.449Z,12.65
2023-05-22T13:28:31.839Z,10.80
2023-05-22T13:30:59.371Z,9.10
2023-05-22T13:33:26.850Z,10.02
2023-05-22T13:35:54.530Z,8.35
2023-05-22T13:38:21.809Z,8.93
2023-05-22T13:40:49.214Z,8.40
2023-05-22T13:43:16.666Z,7.60
2023-05-22T13:45:43.968Z,7.60
2023-05-22T13:48:11.437Z,7.55
2023-05-22T13:50:38.812Z,7.82
2023-05-22T13:53:06.173Z,7.20
2023-05-22T13:55:33.461Z,7.03
2023-05-22T13:58:00.820Z,6.55
2023-05-22T14:00:28.120Z,6.60
2023-05-22T14:02:55.561Z,6.55
2023-05-22T14:05:24.255Z,6.28
2023-05-22T14:07:51.878Z,6.10
2023-05-22T14:10:19.250Z,5.95
2023-05-22T14:12:46.612Z,5.93
2023-05-22T14:15:16.022Z,6.15
2023-05-22T14:17:43.434Z,5.93
2023-05-22T14:20:11.084Z,5.63
2023-05-22T14:22:55.439Z,6.07
2023-05-22T14:25:23.720Z,5.57
2023-05-22T14:27:51.111Z,5.53
2023-05-22T14:30:18.663Z,5.90
2023-05-22T14:32:46.889Z,6.30
2023-05-22T14:35:16.660Z,5.45
2023-05-22T14:37:44.382Z,5.60
2023-05-22T14:40:11.802Z,5.10
2023-05-22T14:42:39.663Z,5.18
2023-05-22T14:45:07.151Z,6.03
2023-05-22T14:47:34.571Z,5.15
2023-05-22T14:50:14.806Z,5.13
2023-05-22T14:52:46.078Z,5.38
2023-05-22T14:55:13.576Z,7.30
2023-05-22T14:57:40.929Z,5.33
2023-05-22T15:00:12.170Z,5.70
2023-05-22T15:02:39.977Z,5.50
2023-05-22T15:05:07.952Z,5.75
2023-05-22T15:10:06.534Z,4.60
2023-05-22T15:12:33.829Z,5.60
2023-05-22T15:15:01.456Z,4.90
2023-05-22T15:17:28.858Z,5.45
2023-05-22T15:19:56.345Z,5.05
2023-05-22T15:22:23.669Z,5.10
2023-05-22T15:25:03.587Z,4.95
2023-05-22T15:27:30.916Z,4.80
2023-05-22T15:29:58.246Z,4.85
2023-05-22T15:32:25.705Z,4.65
2023-05-22T15:34:53.069Z,4.53
2023-05-22T15:37:20.390Z,4.70
2023-05-22T15:39:47.698Z,4.32
2023-05-22T15:42:15.063Z,4.00
2023-05-22T15:44:42.336Z,4.13
2023-05-22T15:47:09.735Z,4.40
2023-05-22T15:49:37.089Z,3.85
2023-05-22T15:52:04.413Z,4.70
2023-05-22T15:54:31.740Z,4.00
2023-05-22T15:56:59.130Z,4.65
2023-05-22T15:59:26.539Z,4.47
2023-05-22T16:01:53.881Z,4.45
2023-05-22T16:04:21.205Z,4.25
2023-05-22T16:06:48.507Z,4.25
2023-05-22T16:09:16.324Z,4.43
2023-05-22T16:11:43.636Z,4.00
2023-05-22T16:14:10.992Z,4.35
2023-05-22T16:16:38.440Z,4.25
2023-05-22T16:19:05.801Z,4.30
2023-05-22T16:21:33.179Z,4.05
2023-05-22T16:24:00.575Z,3.83
2023-05-22T16:26:27.847Z,3.60
2023-05-22T16:28:55.205Z,3.45
2023-05-22T16:31:22.542Z,3.92
2023-05-22T16:33:49.982Z,3.88
2023-05-22T16:36:17.296Z,3.90
2023-05-22T16:38:44.682Z,3.47
2023-05-22T16:41:11.965Z,4.18
2023-05-22T16:43:39.702Z,5.05
2023-05-22T16:46:07.103Z,4.45
2023-05-22T16:48:34.362Z,4.10
2023-05-22T16:51:01.658Z,3.80
2023-05-22T16:53:29.027Z,3.90
2023-05-22T16:55:56.417Z,3.70
2023-05-22T16:58:23.836Z,3.53
2023-05-22T17:00:51.300Z,3.97
2023-05-22T17:03:18.803Z,4.13
2023-05-22T17:05:47.421Z,3.38
2023-05-22T17:08:14.799Z,3.83
2023-05-22T17:10:42.224Z,3.80
2023-05-22T17:13:09.540Z,3.77
2023-05-22T17:15:36.911Z,3.78
2023-05-22T17:18:04.493Z,3.60
2023-05-22T17:20:34.113Z,4.75
2023-05-22T17:23:01.775Z,4.53
2023-05-22T17:25:29.162Z,4.13
2023-05-22T17:27:56.755Z,3.80
2023-05-22T17:30:24.192Z,3.72
2023-05-22T17:32:53.463Z,3.50
2023-05-22T17:35:20.899Z,4.18
2023-05-22T17:37:48.238Z,3.80
2023-05-22T17:40:15.668Z,3.95
2023-05-22T17:42:42.985Z,3.60
2023-05-22T17:45:10.791Z,3.35
2023-05-22T17:47:38.093Z,3.50
2023-05-22T17:50:05.660Z,3.90
2023-05-22T17:52:32.984Z,3.83
2023-05-22T17:55:00.319Z,4.05
2023-05-22T17:57:27.664Z,4.38
2023-05-22T17:59:55.009Z,4.40
2023-05-22T18:02:22.417Z,4.53
2023-05-22T18:04:49.770Z,4.30
2023-05-22T18:07:17.848Z,4.18
2023-05-22T18:09:45.155Z,4.05
2023-05-22T18:12:30.229Z,3.50
2023-05-22T18:14:58.736Z,4.63
2023-05-22T18:17:26.546Z,4.30
2023-05-22T18:19:53.944Z,4.30
2023-05-22T18:22:21.886Z,4.05
2023-05-22T18:24:49.235Z,4.05
2023-05-22T18:27:16.943Z,3.97
2023-05-22T18:29:44.352Z,4.13
2023-05-22T18:32:13.614Z,3.92
2023-05-22T18:34:41.088Z,4.30
2023-05-22T18:37:08.634Z,7.22
2023-05-22T18:39:37.367Z,6.47
2023-05-22T18:42:04.837Z,9.95
2023-05-22T18:44:32.138Z,9.52
2023-05-22T18:46:59.527Z,5.78
2023-05-22T18:49:26.945Z,5.10
2023-05-22T18:51:54.347Z,4.57
2023-05-22T18:54:21.706Z,7.85
2023-05-22T18:56:49.020Z,5.95
2023-05-22T18:59:16.260Z,5.95
2023-05-22T19:01:43.653Z,5.68
2023-05-22T19:04:11.049Z,5.50
2023-05-22T19:06:41.973Z,5.07
2023-05-22T19:09:10.055Z,5.35
2023-05-22T19:11:37.386Z,5.57
2023-05-22T19:14:04.729Z,5.38
2023-05-22T19:16:32.063Z,4.60
2023-05-22T19:18:59.549Z,5.25
2023-05-22T19:21:26.942Z,5.20
2023-05-22T19:23:54.247Z,5.20
2023-05-22T19:26:21.636Z,5.40
2023-05-22T19:28:49.043Z,4.97
2023-05-22T19:31:16.557Z,4.85
2023-05-22T19:33:43.924Z,4.60
2023-05-22T19:36:11.254Z,5.85
2023-05-22T19:38:38.572Z,7.00
2023-05-22T19:41:05.927Z,6.70
2023-05-22T19:43:33.460Z,6.60
2023-05-22T19:46:00.878Z,7.20
2023-05-22T19:48:29.846Z,6.82
2023-05-22T19:50:57.107Z,7.03
2023-05-22T19:53:24.492Z,7.63
2023-05-22T19:55:51.858Z,7.53
2023-05-22T19:58:19.815Z,7.65
2023-05-22T20:00:48.610Z,7.07
2023-05-22T20:03:16.065Z,8.00
2023-05-22T20:05:43.451Z,7.40
2023-05-22T20:08:10.780Z,6.47
2023-05-22T20:10:38.293Z,7.50
2023-05-22T20:13:05.947Z,7.38
2023-05-22T20:15:33.280Z,7.60
2023-05-22T20:18:02.477Z,7.73
2023-05-22T20:20:30.120Z,7.60
2023-05-22T20:22:59.051Z,7.90
2023-05-22T20:25:26.411Z,9.20
2023-05-22T20:27:53.763Z,9.88
2023-05-22T20:30:21.112Z,11.07
2023-05-22T20:32:48.414Z,11.45
2023-05-22T20:35:20.229Z,11.65
2023-05-22T20:37:47.740Z,11.68
2023-05-22T20:40:16.007Z,10.90
2023-05-22T20:42:43.352Z,10.80
2023-05-22T20:45:13.601Z,10.35
2023-05-22T20:47:41.677Z,8.95
2023-05-22T20:50:09.280Z,8.70
2023-05-22T20:52:37.316Z,8.02
2023-05-22T20:55:05.180Z,8.90
2023-05-22T20:57:32.531Z,7.03
2023-05-22T20:59:59.808Z,6.45
2023-05-22T21:02:27.194Z,6.35
2023-05-22T21:04:54.545Z,6.53
2023-05-22T21:07:21.944Z,6.77
2023-05-22T21:09:49.315Z,6.22
2023-05-22T21:12:16.749Z,6.00
2023-05-22T21:14:44.151Z,5.75
2023-05-22T21:17:11.502Z,6.25
2023-05-22T21:19:38.901Z,5.87
2023-05-22T21:22:06.357Z,5.93
2023-05-22T21:24:33.698Z,6.15
2023-05-22T21:27:01.044Z,5.10
2023-05-22T21:29:28.367Z,5.18
2023-05-22T21:31:55.719Z,5.50
2023-05-22T21:34:23.170Z,5.28
2023-05-22T21:36:51.107Z,5.47
2023-05-22T21:39:18.397Z,5.97
2023-05-22T21:41:46.081Z,5.60
2023-05-22T21:44:14.440Z,5.83
2023-05-22T21:46:41.768Z,5.30
2023-05-22T21:49:09.764Z,5.30
2023-05-22T21:51:37.088Z,4.53
2023-05-22T21:54:04.478Z,4.45
2023-05-22T21:56:31.786Z,5.03
2023-05-22T21:58:59.651Z,4.93
2023-05-22T22:01:27.104Z,4.82
2023-05-22T22:03:54.515Z,4.80
2023-05-22T22:06:21.897Z,4.43
2023-05-22T22:08:49.310Z,4.87
2023-05-22T22:11:16.659Z,4.95
2023-05-22T22:13:44.053Z,4.53
2023-05-22T22:16:11.464Z,4.93
2023-05-22T22:18:40.664Z,5.00
2023-05-22T22:21:08.008Z,4.20
2023-05-22T22:23:35.523Z,5.03
2023-05-22T22:26:02.844Z,4.78
2023-05-22T22:28:30.188Z,5.25
2023-05-22T22:30:57.540Z,4.40
2023-05-22T22:33:24.890Z,5.10
2023-05-22T22:35:53.209Z,5.88
2023-05-22T22:38:20.550Z,5.28
2023-05-22T22:40:47.842Z,5.28
2023-05-22T22:43:15.273Z,4.97
2023-05-22T22:45:42.800Z,5.53
2023-05-22T22:48:10.198Z,5.32
2023-05-22T22:50:37.547Z,4.90
2023-05-22T22:53:05.910Z,5.13
2023-05-22T22:55:33.358Z,5.18
2023-05-22T22:58:01.930Z,4.97
2023-05-22T23:00:29.290Z,5.13
2023-05-22T23:02:56.677Z,5.40
2023-05-22T23:05:24.089Z,5.15
2023-05-22T23:07:51.447Z,5.03
2023-05-22T23:10:18.785Z,5.20
2023-05-22T23:12:48.209Z,5.30
2023-05-22T23:15:15.879Z,5.13
2023-05-22T23:17:43.288Z,5.57
2023-05-22T23:20:11.148Z,5.88
2023-05-22T23:22:38.454Z,6.00
2023-05-22T23:25:06.150Z,7.13
2023-05-22T23:27:33.440Z,5.97
2023-05-22T23:30:00.926Z,7.68
2023-05-22T23:32:28.454Z,7.10
2023-05-22T23:34:55.779Z,7.77
2023-05-22T23:37:23.247Z,7.68
2023-05-22T23:39:50.609Z,6.97
2023-05-22T23:42:17.957Z,7.57
2023-05-22T23:44:45.352Z,6.43
2023-05-22T23:47:12.643Z,7.60
2023-05-22T23:49:39.905Z,7.95
2023-05-22T23:52:08.069Z,7.97
2023-05-22T23:54:35.452Z,7.55
2023-05-22T23:57:02.743Z,8.63
2023-05-22T23:59:30.134Z,8.20
